createdAt,value
2022-11-02T00:07:09.930Z,1015.67
2022-11-02T00:22:10.014Z,1015.68
2022-11-02T00:37:10.706Z,1015.71
2022-11-02T00:52:11.226Z,1015.70
2022-11-02T01:07:11.349Z,1015.61
2022-11-02T01:22:11.459Z,1015.74
2022-11-02T01:37:12.065Z,1015.62
2022-11-02T01:52:11.660Z,1015.46
2022-11-02T02:07:11.770Z,1015.42
2022-11-02T02:22:11.858Z,1015.34
2022-11-02T02:37:13.035Z,1015.26
2022-11-02T02:52:12.618Z,1015.18
2022-11-02T03:07:13.205Z,1015.18
2022-11-02T03:22:12.824Z,1015.27
2022-11-02T03:37:12.937Z,1015.21
2022-11-02T03:52:13.025Z,1015.24
2022-11-02T04:07:13.626Z,1015.28
2022-11-02T04:22:14.712Z,1015.17
2022-11-02T04:37:14.848Z,1015.25
2022-11-02T04:52:14.947Z,1015.19
2022-11-02T05:07:15.053Z,1015.16
2022-11-02T05:22:15.649Z,1015.18
2022-11-02T05:37:15.764Z,1015.19
2022-11-02T05:52:15.848Z,1015.28
2022-11-02T06:07:15.961Z,1015.16
2022-11-02T06:22:15.585Z,1015.28
2022-11-02T06:37:16.189Z,1015.29
2022-11-02T06:52:16.762Z,1015.51
2022-11-02T07:07:16.880Z,1015.51
2022-11-02T07:22:17.050Z,1015.44
2022-11-02T07:37:17.578Z,1015.54
2022-11-02T07:52:17.188Z,1015.56
2022-11-02T08:07:17.311Z,1015.62
2022-11-02T08:22:17.896Z,1015.71
2022-11-02T08:37:17.542Z,1015.68
2022-11-02T08:52:17.630Z,1015.72
2022-11-02T09:07:18.231Z,1015.65
2022-11-02T09:22:18.314Z,1015.70
2022-11-02T09:37:17.955Z,1015.78
2022-11-02T09:52:18.033Z,1015.89
2022-11-02T10:07:18.165Z,1015.90
2022-11-02T10:22:18.899Z,1015.93
2022-11-02T10:37:18.933Z,1016.06
2022-11-02T10:52:19.017Z,1015.95
2022-11-02T11:07:19.640Z,1016.12
2022-11-02T11:22:19.222Z,1016.24
2022-11-02T11:37:19.366Z,1016.10
2022-11-02T11:52:19.452Z,1016.16
2022-11-02T12:07:19.545Z,1016.07
2022-11-02T12:22:20.111Z,1016.04
2022-11-02T12:37:39.948Z,1016.03
2022-11-02T12:52:24.828Z,1016.20
2022-11-02T13:07:25.438Z,1016.16
2022-11-02T13:22:25.568Z,1016.32
2022-11-02T13:37:26.127Z,1016.26
2022-11-02T13:52:27.264Z,1016.21
2022-11-02T14:07:27.833Z,1016.33
2022-11-02T14:22:28.438Z,1016.53
2022-11-02T14:37:28.530Z,1016.79
2022-11-02T14:52:28.142Z,1016.84
2022-11-02T15:07:29.475Z,1016.95
2022-11-02T15:22:29.595Z,1017.15
2022-11-02T15:37:29.683Z,1017.37
2022-11-02T15:52:29.781Z,1017.45
2022-11-02T16:07:38.552Z,1017.59
2022-11-02T16:22:34.984Z,1017.59
2022-11-02T16:37:35.071Z,1017.76
2022-11-02T16:52:35.682Z,1017.87
2022-11-02T17:07:35.281Z,1017.99
2022-11-02T17:22:35.401Z,1018.16
2022-11-02T17:37:35.490Z,1018.23
2022-11-02T17:52:37.093Z,1018.37
2022-11-02T18:07:38.170Z,1018.49
2022-11-02T18:22:38.273Z,1018.47
2022-11-02T18:37:38.872Z,1018.56
2022-11-02T18:52:39.025Z,1018.59
2022-11-02T19:07:40.096Z,1018.70
2022-11-02T19:22:40.241Z,1018.66
2022-11-02T19:37:40.828Z,1018.71
2022-11-02T19:52:41.033Z,1018.66
2022-11-02T20:07:41.542Z,1018.77
2022-11-02T20:22:41.696Z,1018.81
2022-11-02T20:37:42.331Z,1018.88
2022-11-02T20:52:42.440Z,1018.89
2022-11-02T21:07:42.566Z,1018.96
2022-11-02T21:22:42.700Z,1019.00
2022-11-02T21:37:43.780Z,1018.94
2022-11-02T21:52:45.247Z,1018.88
2022-11-02T22:07:46.527Z,1018.86
2022-11-02T22:22:47.126Z,1018.77
2022-11-02T22:37:48.246Z,1018.72
2022-11-02T22:52:48.328Z,1018.66
2022-11-02T23:07:48.475Z,1018.61
2022-11-02T23:22:49.057Z,1018.63
2022-11-02T23:37:49.216Z,1018.52
2022-11-02T23:52:49.304Z,1018.50
